Atwater, California
Current Conditions -  °F | °C
As of 8:45 AM on Thursday 23 Oct 2014 (Local Time) from KMER Reporting Station
Broken Clouds Broken Clouds  
Wind Chill: 16°   Ceiling: 15000
Heat Index: 16°   Visibility: 10mi
Dew Point:   Wind: 0mph
Humidity: 59%   Direction: NA
Pressure: 30.07"   Gusts: NA
Location:  37.35°N, 120.6°W
Report Text: KMER 231545Z 00000KT 10SM BKN150 16/08 A3007
Loading
Personal Weather Stations






























Interactive Weather Map
Tropical Storm Tracking
New forecast layout! Learn more

10-Day Weather Forecast

Advertisements
Track Severe Weather on mobile